Terminal Aerodrome Forecast
Issued by NWS

Home | Current Version | Previous Version | Graphics & Text | Print | Product List | Glossary On
Versions: 1 2 3 4 5 6 7 8 9 10 11 12 13
000
FTUS42 KMHX 211751
TAFISO
TAF
KISO 211751Z 2118/2218 00000KT P6SM SKC
     FM220900 00000KT 3SM BR SCT003
      TEMPO 2209/2212 1SM BR BKN003
     FM221200 VRB03KT P6SM SKC
      AMD LTD TO CLD VIS AND WIND=

USA.gov is the U.S. government's official web portal to all federal, state and local government web resources and services.